sensor_id;sensor_type;location;lat;lon;timestamp;pressure;altitude;pressure_sealevel;temperature;humidity
4745;BME280;2386;42.138;24.746;2024-02-26T00:01:52;99260.25;;;12.56;100.00
4745;BME280;2386;42.138;24.746;2024-02-26T00:04:17;99251.91;;;12.62;100.00
4745;BME280;2386;42.138;24.746;2024-02-26T00:06:43;99271.22;;;12.66;100.00
4745;BME280;2386;42.138;24.746;2024-02-26T00:09:09;99257.41;;;12.45;100.00
4745;BME280;2386;42.138;24.746;2024-02-26T00:11:38;99259.78;;;12.42;100.00
4745;BME280;2386;42.138;24.746;2024-02-26T00:14:04;99243.28;;;12.48;100.00
4745;BME280;2386;42.138;24.746;2024-02-26T00:16:30;99242.91;;;12.62;100.00
4745;BME280;2386;42.138;24.746;2024-02-26T00:18:55;99254.81;;;12.56;100.00
4745;BME280;2386;42.138;24.746;2024-02-26T00:21:21;99242.84;;;12.57;100.00
4745;BME280;2386;42.138;24.746;2024-02-26T00:23:49;99246.34;;;12.52;100.00
4745;BME280;2386;42.138;24.746;2024-02-26T00:26:14;99241.78;;;12.58;100.00
4745;BME280;2386;42.138;24.746;2024-02-26T00:28:40;99258.66;;;12.60;100.00
4745;BME280;2386;42.138;24.746;2024-02-26T00:31:05;99257.03;;;12.20;100.00
4745;BME280;2386;42.138;24.746;2024-02-26T00:33:31;99249.09;;;12.35;100.00
4745;BME280;2386;42.138;24.746;2024-02-26T00:35:56;99240.09;;;12.13;100.00
4745;BME280;2386;42.138;24.746;2024-02-26T00:38:22;99263.06;;;12.22;100.00
4745;BME280;2386;42.138;24.746;2024-02-26T00:40:47;99257.88;;;12.04;100.00
4745;BME280;2386;42.138;24.746;2024-02-26T00:43:12;99257.03;;;12.20;100.00
4745;BME280;2386;42.138;24.746;2024-02-26T00:45:38;99250.28;;;12.23;100.00
4745;BME280;2386;42.138;24.746;2024-02-26T00:48:03;99244.44;;;12.14;100.00
4745;BME280;2386;42.138;24.746;2024-02-26T00:50:33;99248.84;;;11.98;100.00
4745;BME280;2386;42.138;24.746;2024-02-26T00:52:59;99253.75;;;12.18;100.00
4745;BME280;2386;42.138;24.746;2024-02-26T00:55:24;99242.50;;;12.31;100.00
4745;BME280;2386;42.138;24.746;2024-02-26T00:57:49;99187.63;;;12.34;100.00
4745;BME280;2386;42.138;24.746;2024-02-26T01:00:15;99178.56;;;12.29;100.00
4745;BME280;2386;42.138;24.746;2024-02-26T01:02:41;99178.50;;;12.24;100.00
4745;BME280;2386;42.138;24.746;2024-02-26T01:05:12;99174.97;;;12.23;100.00
4745;BME280;2386;42.138;24.746;2024-02-26T01:07:38;99172.63;;;12.32;100.00
4745;BME280;2386;42.138;24.746;2024-02-26T01:10:04;99171.09;;;12.41;100.00
4745;BME280;2386;42.138;24.746;2024-02-26T01:12:33;99182.13;;;12.29;100.00
4745;BME280;2386;42.138;24.746;2024-02-26T01:15:02;99177.13;;;12.21;100.00
4745;BME280;2386;42.138;24.746;2024-02-26T01:17:30;99168.25;;;12.09;100.00
4745;BME280;2386;42.138;24.746;2024-02-26T01:19:56;99172.69;;;12.15;100.00
4745;BME280;2386;42.138;24.746;2024-02-26T01:22:21;99202.19;;;12.06;100.00
4745;BME280;2386;42.138;24.746;2024-02-26T01:24:47;99199.69;;;12.22;100.00
4745;BME280;2386;42.138;24.746;2024-02-26T01:27:13;99196.00;;;12.11;100.00
4745;BME280;2386;42.138;24.746;2024-02-26T01:29:40;99189.94;;;12.26;100.00
4745;BME280;2386;42.138;24.746;2024-02-26T01:32:06;99207.88;;;12.43;100.00
4745;BME280;2386;42.138;24.746;2024-02-26T01:34:31;99210.66;;;12.48;100.00
4745;BME280;2386;42.138;24.746;2024-02-26T01:36:57;99210.47;;;12.55;100.00
4745;BME280;2386;42.138;24.746;2024-02-26T01:39:22;99200.50;;;12.66;100.00
4745;BME280;2386;42.138;24.746;2024-02-26T01:41:48;99199.63;;;12.38;100.00
4745;BME280;2386;42.138;24.746;2024-02-26T01:44:13;99190.53;;;12.49;100.00
4745;BME280;2386;42.138;24.746;2024-02-26T01:46:39;99211.34;;;12.61;100.00
4745;BME280;2386;42.138;24.746;2024-02-26T01:49:05;99206.44;;;12.63;100.00
4745;BME280;2386;42.138;24.746;2024-02-26T01:51:32;99207.78;;;12.60;100.00
4745;BME280;2386;42.138;24.746;2024-02-26T01:54:00;99206.44;;;12.63;100.00
4745;BME280;2386;42.138;24.746;2024-02-26T01:56:27;99213.75;;;12.57;100.00
4745;BME280;2386;42.138;24.746;2024-02-26T01:58:56;99211.16;;;12.45;100.00
4745;BME280;2386;42.138;24.746;2024-02-26T02:01:22;99205.28;;;12.54;100.00
4745;BME280;2386;42.138;24.746;2024-02-26T02:03:50;99207.00;;;12.65;100.00
4745;BME280;2386;42.138;24.746;2024-02-26T02:06:15;99201.03;;;12.41;100.00
4745;BME280;2386;42.138;24.746;2024-02-26T02:08:41;99197.16;;;12.15;100.00
4745;BME280;2386;42.138;24.746;2024-02-26T02:11:07;99196.22;;;12.26;100.00
4745;BME280;2386;42.138;24.746;2024-02-26T02:13:33;99191.47;;;12.16;100.00
4745;BME280;2386;42.138;24.746;2024-02-26T02:15:58;99196.84;;;12.33;100.00
4745;BME280;2386;42.138;24.746;2024-02-26T02:18:24;99201.59;;;12.43;100.00
4745;BME280;2386;42.138;24.746;2024-02-26T02:20:49;99204.06;;;12.44;100.00
4745;BME280;2386;42.138;24.746;2024-02-26T02:23:14;99196.72;;;12.45;100.00
4745;BME280;2386;42.138;24.746;2024-02-26T02:25:40;99187.19;;;12.42;100.00
4745;BME280;2386;42.138;24.746;2024-02-26T02:28:05;99184.66;;;12.36;100.00
4745;BME280;2386;42.138;24.746;2024-02-26T02:30:31;99191.22;;;12.40;100.00
4745;BME280;2386;42.138;24.746;2024-02-26T02:32:58;99198.50;;;12.34;100.00
4745;BME280;2386;42.138;24.746;2024-02-26T02:35:24;99197.41;;;12.35;100.00
4745;BME280;2386;42.138;24.746;2024-02-26T02:37:52;99187.63;;;12.34;100.00
4745;BME280;2386;42.138;24.746;2024-02-26T02:40:18;99195.72;;;12.29;100.00
4745;BME280;2386;42.138;24.746;2024-02-26T02:42:44;99193.69;;;12.20;100.00
4745;BME280;2386;42.138;24.746;2024-02-26T02:45:09;99196.41;;;12.20;100.00
4745;BME280;2386;42.138;24.746;2024-02-26T02:47:38;99195.38;;;12.26;100.00
4745;BME280;2386;42.138;24.746;2024-02-26T02:50:04;99199.94;;;12.20;100.00
4745;BME280;2386;42.138;24.746;2024-02-26T02:52:29;99199.88;;;12.15;100.00
4745;BME280;2386;42.138;24.746;2024-02-26T02:54:55;99210.16;;;12.13;100.00
4745;BME280;2386;42.138;24.746;2024-02-26T02:57:20;99214.88;;;12.01;100.00
4745;BME280;2386;42.138;24.746;2024-02-26T02:59:46;99216.53;;;12.02;100.00
4745;BME280;2386;42.138;24.746;2024-02-26T03:02:11;99207.66;;;11.90;100.00
4745;BME280;2386;42.138;24.746;2024-02-26T03:04:37;99204.25;;;11.77;100.00
4745;BME280;2386;42.138;24.746;2024-02-26T03:07:02;99211.72;;;11.87;100.00
4745;BME280;2386;42.138;24.746;2024-02-26T03:09:28;99213.91;;;11.90;100.00
4745;BME280;2386;42.138;24.746;2024-02-26T03:11:53;99203.38;;;11.94;100.00
4745;BME280;2386;42.138;24.746;2024-02-26T03:14:19;99210.28;;;12.01;100.00
4745;BME280;2386;42.138;24.746;2024-02-26T03:16:44;99215.22;;;12.04;100.00
4745;BME280;2386;42.138;24.746;2024-02-26T03:19:10;99205.09;;;12.00;100.00
4745;BME280;2386;42.138;24.746;2024-02-26T03:21:35;99219.34;;;12.07;100.00
4745;BME280;2386;42.138;24.746;2024-02-26T03:24:00;99222.28;;;12.05;100.00
4745;BME280;2386;42.138;24.746;2024-02-26T03:26:26;99215.53;;;12.08;100.00
4745;BME280;2386;42.138;24.746;2024-02-26T03:28:51;99211.03;;;11.97;100.00
4745;BME280;2386;42.138;24.746;2024-02-26T03:31:16;99219.00;;;12.03;100.00
4745;BME280;2386;42.138;24.746;2024-02-26T03:33:42;99205.50;;;12.08;100.00
4745;BME280;2386;42.138;24.746;2024-02-26T03:36:07;99208.59;;;12.17;100.00
4745;BME280;2386;42.138;24.746;2024-02-26T03:38:33;99218.47;;;12.23;100.00
4745;BME280;2386;42.138;24.746;2024-02-26T03:40:58;99216.53;;;12.02;100.00
4745;BME280;2386;42.138;24.746;2024-02-26T03:43:24;99210.91;;;11.87;100.00
4745;BME280;2386;42.138;24.746;2024-02-26T03:45:49;99216.88;;;11.89;100.00
4745;BME280;2386;42.138;24.746;2024-02-26T03:48:14;99224.50;;;11.87;100.00
4745;BME280;2386;42.138;24.746;2024-02-26T03:50:40;99218.84;;;11.93;100.00
4745;BME280;2386;42.138;24.746;2024-02-26T03:53:05;99216.09;;;11.88;100.00
4745;BME280;2386;42.138;24.746;2024-02-26T03:55:31;99221.31;;;11.95;100.00
4745;BME280;2386;42.138;24.746;2024-02-26T03:57:56;99212.03;;;11.91;100.00
4745;BME280;2386;42.138;24.746;2024-02-26T04:00:22;99216.88;;;11.89;100.00
4745;BME280;2386;42.138;24.746;2024-02-26T04:02:51;99226.06;;;11.82;100.00
4745;BME280;2386;42.138;24.746;2024-02-26T04:05:17;99225.31;;;11.87;100.00
4745;BME280;2386;42.138;24.746;2024-02-26T04:07:42;99231.88;;;11.74;100.00
4745;BME280;2386;42.138;24.746;2024-02-26T04:10:11;99221.84;;;11.75;100.00
4745;BME280;2386;42.138;24.746;2024-02-26T04:12:40;99227.94;;;11.65;100.00
4745;BME280;2386;42.138;24.746;2024-02-26T04:15:08;99219.88;;;11.70;100.00
4745;BME280;2386;42.138;24.746;2024-02-26T04:17:33;99230.41;;;11.67;100.00
4745;BME280;2386;42.138;24.746;2024-02-26T04:19:58;99225.97;;;11.77;100.00
4745;BME280;2386;42.138;24.746;2024-02-26T04:22:24;99223.16;;;11.72;100.00
4745;BME280;2386;42.138;24.746;2024-02-26T04:24:49;99219.38;;;11.73;100.00
4745;BME280;2386;42.138;24.746;2024-02-26T04:27:15;99218.28;;;11.74;100.00
4745;BME280;2386;42.138;24.746;2024-02-26T04:29:40;99211.41;;;11.83;100.00
4745;BME280;2386;42.138;24.746;2024-02-26T04:32:05;99220.75;;;11.76;100.00
4745;BME280;2386;42.138;24.746;2024-02-26T04:34:31;99218.78;;;11.71;100.00
4745;BME280;2386;42.138;24.746;2024-02-26T04:36:57;99223.06;;;11.67;100.00
4745;BME280;2386;42.138;24.746;2024-02-26T04:39:22;99231.38;;;11.61;100.00
4745;BME280;2386;42.138;24.746;2024-02-26T04:41:48;99232.22;;;11.61;100.00
4745;BME280;2386;42.138;24.746;2024-02-26T04:44:14;99223.47;;;11.76;100.00
4745;BME280;2386;42.138;24.746;2024-02-26T04:46:39;99221.00;;;11.74;100.00
4745;BME280;2386;42.138;24.746;2024-02-26T04:49:05;99229.91;;;11.70;100.00
4745;BME280;2386;42.138;24.746;2024-02-26T04:51:31;99226.94;;;11.71;100.00
4745;BME280;2386;42.138;24.746;2024-02-26T04:53:56;99228.00;;;11.70;100.00
4745;BME280;2386;42.138;24.746;2024-02-26T04:56:21;99233.44;;;11.70;100.00
4745;BME280;2386;42.138;24.746;2024-02-26T04:58:47;99229.81;;;11.65;100.00
4745;BME280;2386;42.138;24.746;2024-02-26T05:01:13;99232.94;;;11.73;100.00
4745;BME280;2386;42.138;24.746;2024-02-26T05:03:38;99229.91;;;11.70;100.00
4745;BME280;2386;42.138;24.746;2024-02-26T05:06:05;99235.88;;;11.83;100.00
4745;BME280;2386;42.138;24.746;2024-02-26T05:08:30;99239.72;;;11.88;100.00
4745;BME280;2386;42.138;24.746;2024-02-26T05:10:56;99240.47;;;11.83;100.00
4745;BME280;2386;42.138;24.746;2024-02-26T05:13:21;99234.53;;;11.86;100.00
4745;BME280;2386;42.138;24.746;2024-02-26T05:15:47;99234.28;;;11.88;100.00
4745;BME280;2386;42.138;24.746;2024-02-26T05:18:15;99237.56;;;11.90;100.00
4745;BME280;2386;42.138;24.746;2024-02-26T05:20:40;99237.50;;;11.84;100.00
4745;BME280;2386;42.138;24.746;2024-02-26T05:23:06;99240.81;;;11.87;100.00
4745;BME280;2386;42.138;24.746;2024-02-26T05:25:31;99244.25;;;11.82;100.00
4745;BME280;2386;42.138;24.746;2024-02-26T05:27:56;99238.97;;;11.75;100.00
4745;BME280;2386;42.138;24.746;2024-02-26T05:30:22;99236.75;;;11.72;100.00
4745;BME280;2386;42.138;24.746;2024-02-26T05:32:47;99247.59;;;11.56;100.00
4745;BME280;2386;42.138;24.746;2024-02-26T05:35:12;99253.28;;;11.71;100.00
4745;BME280;2386;42.138;24.746;2024-02-26T05:37:38;99265.19;;;11.81;100.00
4745;BME280;2386;42.138;24.746;2024-02-26T05:40:05;99253.81;;;11.84;100.00
4745;BME280;2386;42.138;24.746;2024-02-26T05:42:30;99256.69;;;11.78;100.00
4745;BME280;2386;42.138;24.746;2024-02-26T05:44:56;99254.06;;;11.83;100.00
4745;BME280;2386;42.138;24.746;2024-02-26T05:47:22;99253.94;;;11.95;100.00
4745;BME280;2386;42.138;24.746;2024-02-26T05:49:47;99260.34;;;12.05;100.00
4745;BME280;2386;42.138;24.746;2024-02-26T05:52:14;99259.03;;;12.08;100.00
4745;BME280;2386;42.138;24.746;2024-02-26T05:54:39;99253.44;;;12.14;100.00
4745;BME280;2386;42.138;24.746;2024-02-26T05:57:04;99263.63;;;12.24;100.00
4745;BME280;2386;42.138;24.746;2024-02-26T05:59:30;99271.03;;;12.29;100.00
4745;BME280;2386;42.138;24.746;2024-02-26T06:01:55;99269.84;;;12.41;100.00
4745;BME280;2386;42.138;24.746;2024-02-26T06:04:21;99275.69;;;12.50;100.00
4745;BME280;2386;42.138;24.746;2024-02-26T06:06:46;99285.88;;;12.60;100.00
4745;BME280;2386;42.138;24.746;2024-02-26T06:09:11;99278.78;;;12.59;100.00
4745;BME280;2386;42.138;24.746;2024-02-26T06:11:37;99283.53;;;12.46;100.00
4745;BME280;2386;42.138;24.746;2024-02-26T06:14:03;99285.25;;;12.53;100.00
4745;BME280;2386;42.138;24.746;2024-02-26T06:16:28;99292.41;;;12.59;100.00
4745;BME280;2386;42.138;24.746;2024-02-26T06:18:53;99285.31;;;12.58;100.00
4745;BME280;2386;42.138;24.746;2024-02-26T06:21:19;99285.84;;;12.38;100.00
4745;BME280;2386;42.138;24.746;2024-02-26T06:23:44;99296.06;;;12.47;100.00
4745;BME280;2386;42.138;24.746;2024-02-26T06:26:10;99293.38;;;12.31;100.00
4745;BME280;2386;42.138;24.746;2024-02-26T06:28:35;99295.41;;;12.40;100.00
4745;BME280;2386;42.138;24.746;2024-02-26T06:31:01;99298.34;;;12.56;100.00
4745;BME280;2386;42.138;24.746;2024-02-26T06:33:27;99298.66;;;12.59;100.00
4745;BME280;2386;42.138;24.746;2024-02-26T06:35:53;99296.81;;;12.65;100.00
4745;BME280;2386;42.138;24.746;2024-02-26T06:38:18;99297.25;;;12.78;100.00
4745;BME280;2386;42.138;24.746;2024-02-26T06:40:44;99306.06;;;12.86;100.00
4745;BME280;2386;42.138;24.746;2024-02-26T06:43:10;99304.09;;;12.81;100.00
4745;BME280;2386;42.138;24.746;2024-02-26T06:45:35;99318.97;;;12.95;100.00
4745;BME280;2386;42.138;24.746;2024-02-26T06:48:01;99301.81;;;12.95;100.00
4745;BME280;2386;42.138;24.746;2024-02-26T06:50:27;99300.03;;;13.05;100.00
4745;BME280;2386;42.138;24.746;2024-02-26T06:52:53;99303.56;;;13.06;100.00
4745;BME280;2386;42.138;24.746;2024-02-26T06:55:18;99307.38;;;13.05;100.00
4745;BME280;2386;42.138;24.746;2024-02-26T06:57:43;99308.91;;;13.18;100.00
4745;BME280;2386;42.138;24.746;2024-02-26T07:00:09;99314.94;;;13.20;100.00
4745;BME280;2386;42.138;24.746;2024-02-26T07:02:39;99316.13;;;13.29;100.00
4745;BME280;2386;42.138;24.746;2024-02-26T07:05:06;99322.41;;;13.29;100.00
4745;BME280;2386;42.138;24.746;2024-02-26T07:07:31;99321.31;;;13.30;100.00
4745;BME280;2386;42.138;24.746;2024-02-26T07:09:58;99317.16;;;13.23;100.00
4745;BME280;2386;42.138;24.746;2024-02-26T07:12:23;99313.66;;;13.05;100.00
4745;BME280;2386;42.138;24.746;2024-02-26T07:14:49;99312.50;;;13.01;100.00
4745;BME280;2386;42.138;24.746;2024-02-26T07:17:16;99319.47;;;13.14;100.00
4745;BME280;2386;42.138;24.746;2024-02-26T07:19:42;99312.84;;;13.27;100.00
4745;BME280;2386;42.138;24.746;2024-02-26T07:22:08;99313.91;;;13.04;100.00
4745;BME280;2386;42.138;24.746;2024-02-26T07:24:34;99316.56;;;12.99;100.00
4745;BME280;2386;42.138;24.746;2024-02-26T07:26:59;99324.09;;;13.13;100.00
4745;BME280;2386;42.138;24.746;2024-02-26T07:29:24;99321.38;;;13.13;100.00
4745;BME280;2386;42.138;24.746;2024-02-26T07:31:50;99315.81;;;13.03;100.00
4745;BME280;2386;42.138;24.746;2024-02-26T07:34:15;99326.41;;;13.22;100.00
4745;BME280;2386;42.138;24.746;2024-02-26T07:36:41;99324.66;;;13.15;100.00
4745;BME280;2386;42.138;24.746;2024-02-26T07:39:06;99315.94;;;12.92;100.00
4745;BME280;2386;42.138;24.746;2024-02-26T07:41:32;99314.78;;;13.31;100.00
4745;BME280;2386;42.138;24.746;2024-02-26T07:43:58;99328.28;;;13.75;100.00
4745;BME280;2386;42.138;24.746;2024-02-26T07:46:23;99315.22;;;13.77;100.00
4745;BME280;2386;42.138;24.746;2024-02-26T07:48:49;99316.88;;;13.78;100.00
4745;BME280;2386;42.138;24.746;2024-02-26T07:51:15;99310.53;;;13.72;100.00
4745;BME280;2386;42.138;24.746;2024-02-26T07:53:40;99313.28;;;13.72;100.00
4745;BME280;2386;42.138;24.746;2024-02-26T07:56:09;99304.53;;;13.70;100.00
4745;BME280;2386;42.138;24.746;2024-02-26T07:58:34;99310.03;;;13.75;100.00
4745;BME280;2386;42.138;24.746;2024-02-26T08:00:59;99309.94;;;13.65;100.00
4745;BME280;2386;42.138;24.746;2024-02-26T08:03:28;99307.88;;;13.77;100.00
4745;BME280;2386;42.138;24.746;2024-02-26T08:05:53;99304.88;;;13.79;100.00
4745;BME280;2386;42.138;24.746;2024-02-26T08:08:19;99308.94;;;13.76;100.00
4745;BME280;2386;42.138;24.746;2024-02-26T08:10:44;99315.53;;;13.80;100.00
4745;BME280;2386;42.138;24.746;2024-02-26T08:13:09;99315.91;;;13.94;100.00
4745;BME280;2386;42.138;24.746;2024-02-26T08:15:35;99314.41;;;14.08;98.43
4745;BME280;2386;42.138;24.746;2024-02-26T08:18:02;99311.13;;;14.11;97.91
4745;BME280;2386;42.138;24.746;2024-02-26T08:20:29;99310.91;;;14.18;97.08
4745;BME280;2386;42.138;24.746;2024-02-26T08:22:55;99316.94;;;14.25;95.92
4745;BME280;2386;42.138;24.746;2024-02-26T08:25:20;99306.03;;;14.25;96.72
4745;BME280;2386;42.138;24.746;2024-02-26T08:27:46;99313.19;;;14.31;95.77
4745;BME280;2386;42.138;24.746;2024-02-26T08:30:13;99316.16;;;14.30;96.01
4745;BME280;2386;42.138;24.746;2024-02-26T08:32:42;99314.84;;;14.37;93.56
4745;BME280;2386;42.138;24.746;2024-02-26T08:35:07;99307.22;;;14.39;93.25
4745;BME280;2386;42.138;24.746;2024-02-26T08:37:33;99310.78;;;14.40;92.86
4745;BME280;2386;42.138;24.746;2024-02-26T08:39:58;99303.47;;;14.45;92.48
4745;BME280;2386;42.138;24.746;2024-02-26T08:42:24;99313.31;;;14.46;93.05
4745;BME280;2386;42.138;24.746;2024-02-26T08:44:49;99309.75;;;14.46;94.89
4745;BME280;2386;42.138;24.746;2024-02-26T08:47:15;99303.19;;;14.42;92.20
4745;BME280;2386;42.138;24.746;2024-02-26T08:49:45;99305.41;;;14.50;92.85
4745;BME280;2386;42.138;24.746;2024-02-26T08:52:10;99294.28;;;14.62;92.51
4745;BME280;2386;42.138;24.746;2024-02-26T08:54:36;99290.47;;;14.63;91.24
4745;BME280;2386;42.138;24.746;2024-02-26T08:57:01;99309.09;;;14.71;92.10
4745;BME280;2386;42.138;24.746;2024-02-26T08:59:28;99308.03;;;14.87;91.17
4745;BME280;2386;42.138;24.746;2024-02-26T09:01:54;99300.94;;;14.86;92.88
4745;BME280;2386;42.138;24.746;2024-02-26T09:04:20;99292.78;;;14.96;89.83
4745;BME280;2386;42.138;24.746;2024-02-26T09:06:46;99297.19;;;15.07;87.23
4745;BME280;2386;42.138;24.746;2024-02-26T09:09:11;99298.84;;;15.13;86.72
4745;BME280;2386;42.138;24.746;2024-02-26T09:11:37;99293.38;;;15.08;87.24
4745;BME280;2386;42.138;24.746;2024-02-26T09:14:02;99300.75;;;15.08;88.38
4745;BME280;2386;42.138;24.746;2024-02-26T09:16:29;99290.09;;;15.11;88.53
4745;BME280;2386;42.138;24.746;2024-02-26T09:18:54;99299.13;;;15.12;88.45
4745;BME280;2386;42.138;24.746;2024-02-26T09:21:20;99297.38;;;14.81;89.28
4745;BME280;2386;42.138;24.746;2024-02-26T09:23:49;99296.66;;;15.10;87.27
4745;BME280;2386;42.138;24.746;2024-02-26T09:26:15;99291.47;;;15.14;88.23
4745;BME280;2386;42.138;24.746;2024-02-26T09:28:40;99298.88;;;15.19;89.15
4745;BME280;2386;42.138;24.746;2024-02-26T09:31:05;99290.97;;;15.27;89.50
4745;BME280;2386;42.138;24.746;2024-02-26T09:33:32;99290.44;;;15.30;96.16
4745;BME280;2386;42.138;24.746;2024-02-26T09:35:57;99281.94;;;15.22;100.00
4745;BME280;2386;42.138;24.746;2024-02-26T09:38:23;99288.00;;;15.39;100.00
4745;BME280;2386;42.138;24.746;2024-02-26T09:40:49;99286.31;;;15.28;100.00
4745;BME280;2386;42.138;24.746;2024-02-26T09:43:17;99281.78;;;14.71;100.00
4745;BME280;2386;42.138;24.746;2024-02-26T09:45:46;99294.09;;;14.78;96.67
4745;BME280;2386;42.138;24.746;2024-02-26T09:48:12;99276.28;;;14.66;100.00
4745;BME280;2386;42.138;24.746;2024-02-26T09:50:41;99284.47;;;14.61;97.85
4745;BME280;2386;42.138;24.746;2024-02-26T09:53:08;99281.22;;;14.69;97.21
4745;BME280;2386;42.138;24.746;2024-02-26T09:55:35;99279.13;;;14.96;95.99
4745;BME280;2386;42.138;24.746;2024-02-26T09:58:01;99273.44;;;15.13;95.49
4745;BME280;2386;42.138;24.746;2024-02-26T10:00:27;99281.91;;;15.06;94.24
4745;BME280;2386;42.138;24.746;2024-02-26T10:02:58;99272.13;;;15.36;89.87
4745;BME280;2386;42.138;24.746;2024-02-26T10:05:26;99261.78;;;15.53;94.53
4745;BME280;2386;42.138;24.746;2024-02-26T10:07:52;99262.06;;;15.77;90.89
4745;BME280;2386;42.138;24.746;2024-02-26T10:10:18;99253.59;;;15.99;88.84
4745;BME280;2386;42.138;24.746;2024-02-26T10:12:44;99251.38;;;16.16;92.17
4745;BME280;2386;42.138;24.746;2024-02-26T10:15:09;99242.38;;;15.80;85.40
4745;BME280;2386;42.138;24.746;2024-02-26T10:17:35;99240.97;;;15.32;90.06
4745;BME280;2386;42.138;24.746;2024-02-26T10:20:17;99241.53;;;15.49;90.98
4745;BME280;2386;42.138;24.746;2024-02-26T10:22:44;99228.94;;;15.23;90.36
4745;BME280;2386;42.138;24.746;2024-02-26T10:25:10;99231.44;;;15.55;86.61
4745;BME280;2386;42.138;24.746;2024-02-26T10:27:35;99230.34;;;15.51;88.90
4745;BME280;2386;42.138;24.746;2024-02-26T10:30:13;99227.91;;;15.59;89.68
4745;BME280;2386;42.138;24.746;2024-02-26T10:32:40;99225.97;;;15.85;87.47
4745;BME280;2386;42.138;24.746;2024-02-26T10:35:08;99221.31;;;15.86;84.87
4745;BME280;2386;42.138;24.746;2024-02-26T10:37:34;99201.88;;;15.97;83.49
4745;BME280;2386;42.138;24.746;2024-02-26T10:39:59;99210.84;;;16.23;78.69
4745;BME280;2386;42.138;24.746;2024-02-26T10:42:26;99213.50;;;16.43;79.83
4745;BME280;2386;42.138;24.746;2024-02-26T10:44:51;99204.69;;;16.57;80.17
4745;BME280;2386;42.138;24.746;2024-02-26T10:47:17;99198.09;;;16.73;83.36
4745;BME280;2386;42.138;24.746;2024-02-26T10:49:49;99199.75;;;16.64;74.22
4745;BME280;2386;42.138;24.746;2024-02-26T10:52:15;99201.69;;;16.58;74.81
4745;BME280;2386;42.138;24.746;2024-02-26T10:54:47;99201.34;;;16.80;72.89
4745;BME280;2386;42.138;24.746;2024-02-26T10:57:15;99189.22;;;16.91;75.37
4745;BME280;2386;42.138;24.746;2024-02-26T10:59:44;99185.03;;;17.04;73.39
4745;BME280;2386;42.138;24.746;2024-02-26T11:02:12;99186.56;;;17.20;77.05
4745;BME280;2386;42.138;24.746;2024-02-26T11:04:38;99189.50;;;17.29;69.18
4745;BME280;2386;42.138;24.746;2024-02-26T11:07:04;99195.53;;;17.31;66.36
4745;BME280;2386;42.138;24.746;2024-02-26T11:09:32;99180.69;;;17.37;67.34
4745;BME280;2386;42.138;24.746;2024-02-26T11:11:58;99179.25;;;17.45;70.83
4745;BME280;2386;42.138;24.746;2024-02-26T11:14:25;99182.31;;;17.38;68.56
4745;BME280;2386;42.138;24.746;2024-02-26T11:16:51;99170.69;;;17.51;67.19
4745;BME280;2386;42.138;24.746;2024-02-26T11:19:17;99182.56;;;17.41;67.18
4745;BME280;2386;42.138;24.746;2024-02-26T11:21:43;99169.03;;;17.16;65.21
4745;BME280;2386;42.138;24.746;2024-02-26T11:24:12;99165.38;;;17.31;66.64
4745;BME280;2386;42.138;24.746;2024-02-26T11:26:43;99160.66;;;17.36;66.89
4745;BME280;2386;42.138;24.746;2024-02-26T11:29:15;99160.63;;;17.41;66.66
4745;BME280;2386;42.138;24.746;2024-02-26T11:31:42;99158.09;;;17.11;68.20
4745;BME280;2386;42.138;24.746;2024-02-26T11:34:09;99153.16;;;16.74;69.76
4745;BME280;2386;42.138;24.746;2024-02-26T11:36:36;99151.28;;;17.08;69.19
4745;BME280;2386;42.138;24.746;2024-02-26T11:39:04;99146.28;;;17.16;67.24
4745;BME280;2386;42.138;24.746;2024-02-26T11:41:31;99149.31;;;17.14;68.43
4745;BME280;2386;42.138;24.746;2024-02-26T11:44:03;99148.66;;;16.93;68.15
4745;BME280;2386;42.138;24.746;2024-02-26T11:48:58;99139.56;;;17.37;68.11
4745;BME280;2386;42.138;24.746;2024-02-26T11:51:27;99139.31;;;17.33;66.67
4745;BME280;2386;42.138;24.746;2024-02-26T11:53:54;99136.72;;;17.47;68.22
4745;BME280;2386;42.138;24.746;2024-02-26T11:58:45;99123.03;;;17.76;67.21
4745;BME280;2386;42.138;24.746;2024-02-26T12:04:05;99125.34;;;17.88;64.57
4745;BME280;2386;42.138;24.746;2024-02-26T12:06:31;99129.09;;;17.97;62.57
4745;BME280;2386;42.138;24.746;2024-02-26T12:08:57;99133.44;;;18.03;63.82
4745;BME280;2386;42.138;24.746;2024-02-26T12:11:22;99129.81;;;18.08;61.45
4745;BME280;2386;42.138;24.746;2024-02-26T12:13:48;99118.59;;;18.04;62.45
4745;BME280;2386;42.138;24.746;2024-02-26T12:16:40;99125.25;;;17.98;62.41
4745;BME280;2386;42.138;24.746;2024-02-26T12:19:08;99120.28;;;18.00;65.18
4745;BME280;2386;42.138;24.746;2024-02-26T12:21:35;99103.75;;;18.05;63.17
4745;BME280;2386;42.138;24.746;2024-02-26T12:24:11;99105.63;;;18.10;64.62
4745;BME280;2386;42.138;24.746;2024-02-26T12:26:38;99108.78;;;18.22;66.46
4745;BME280;2386;42.138;24.746;2024-02-26T12:29:03;99108.72;;;18.27;65.06
4745;BME280;2386;42.138;24.746;2024-02-26T12:31:29;99104.34;;;18.02;62.69
4745;BME280;2386;42.138;24.746;2024-02-26T12:33:56;99105.44;;;18.25;65.58
4745;BME280;2386;42.138;24.746;2024-02-26T12:36:22;99106.78;;;18.27;63.15
4745;BME280;2386;42.138;24.746;2024-02-26T12:38:50;99095.91;;;18.41;61.92
4745;BME280;2386;42.138;24.746;2024-02-26T12:41:16;99100.88;;;18.58;64.58
4745;BME280;2386;42.138;24.746;2024-02-26T12:43:41;99112.47;;;18.55;63.42
4745;BME280;2386;42.138;24.746;2024-02-26T12:46:07;99103.72;;;18.53;62.40
4745;BME280;2386;42.138;24.746;2024-02-26T12:48:33;99104.22;;;18.12;61.97
4745;BME280;2386;42.138;24.746;2024-02-26T12:50:59;99091.06;;;18.33;61.34
4745;BME280;2386;42.138;24.746;2024-02-26T12:53:25;99092.88;;;18.43;59.46
4745;BME280;2386;42.138;24.746;2024-02-26T12:55:50;99097.09;;;18.54;60.80
4745;BME280;2386;42.138;24.746;2024-02-26T12:58:16;99097.81;;;18.22;59.91
4745;BME280;2386;42.138;24.746;2024-02-26T13:00:42;99090.91;;;18.24;60.72
4745;BME280;2386;42.138;24.746;2024-02-26T13:03:09;99095.09;;;18.41;61.90
4745;BME280;2386;42.138;24.746;2024-02-26T13:05:35;99099.84;;;18.54;60.71
4745;BME280;2386;42.138;24.746;2024-02-26T13:08:00;99093.75;;;18.38;60.07